Terminal Aerodrome Forecast
Issued by NWS

Home | Current Version | Previous Version | Text Only | Print | Product List | Glossary On
Versions: 1 2 3 4 5 6 7 8 9 10 11 12 13 14 15 16 17 18 19
000
FTUS43 KEAX 051129
TAFMKC
TAF
KMKC 051129Z 0512/0612 11010KT P6SM VCSH BKN050 OVC060
      TEMPO 0513/0516 5SM -RA BR BKN010
     FM051600 11008KT P6SM VCSH SCT050
     FM060000 01006KT P6SM SCT100=

USA.gov is the U.S. government's official web portal to all federal, state and local government web resources and services.